NKW weather

Diego Garcia Naval Support Facility
Diego Garcia, British Indian Ocean Territory

Public forecast

Using degrees Celsius for public forecast. Weather courtesy of forecast.io.

Current aviation weather report (METAR) for Diego Garcia Naval Support Facility

Retrieved 2020/06/01 07:55 UTC (41 minutes ago):

FJDG 010755Z 09010KT 9999 FEW020 33/26 A2988 RMK SLP115 T03250260

Aviation forecast (TAF) for Diego Garcia Naval Support Facility

Forecast is more than 6 hours old.

Retrieved 2020-06-01 01:15 UTC (7 hours ago):

TAF TAF FJDG 010100Z 0101/0207 09009KT 9000 BR FEW030 QNH2989INS BECMG 0107/0108 11009KT 9999 NSW BKN026 QNH2991INS BECMG 0108/0109 11009KT 9999 SCT025 QNH2986INS BECMG 0110/0111 13009KT 9999 BKN025 QNH2984INS BECMG 0116/0117 14012KT 9999 SCT026 QNH2987INS BECMG 0121/0122 12009KT 9000 BR BKN025 QNH2983INS BECMG 0206/0207 10012KT 8000 -SHRA BKN025 QNH2986INS TX33/0108Z TN28/0200Z